Time;durP1;ratioP1;P1;durP2;ratioP2;P2;SDS_P1;SDS_P2;PMS_P1;PMS_P2;Temp;Humidity;BMP_temperature;BMP_pressure;BME280_temperature;BME280_humidity;BME280_pressure;Samples;Min_cycle;Max_cycle;Signal;HPM_P1;HPM_P2
2022/08/06 00:01:42;;;;;;;2.85;2.63;;;12.60;99.90;;;;;;5000275;28;89748;-32
2022/08/06 00:04:07;;;;;;;4.57;2.63;;;12.60;99.90;;;;;;5000079;28;88875;-32
2022/08/06 00:06:33;;;;;;;5.38;2.08;;;12.50;99.90;;;;;;5000089;28;88993;-32
2022/08/06 00:08:59;;;;;;;5.93;2.22;;;12.50;99.90;;;;;;5000178;28;89102;-33
2022/08/06 00:11:24;;;;;;;3.75;2.30;;;12.50;99.90;;;;;;5000213;28;90906;-30
2022/08/06 00:13:50;;;;;;;3.15;2.38;;;12.50;99.90;;;;;;5000696;28;90121;-31
2022/08/06 00:16:16;;;;;;;3.58;2.13;;;12.50;99.90;;;;;;5001189;28;88267;-34
2022/08/06 00:18:43;;;;;;;5.72;2.65;;;12.50;99.90;;;;;;5034186;22;90168;-34
2022/08/06 00:21:08;;;;;;;4.75;2.40;;;12.50;99.90;;;;;;4999589;28;90331;-36
2022/08/06 00:23:34;;;;;;;3.75;2.38;;;12.50;99.90;;;;;;5000025;28;91779;-32
2022/08/06 00:25:59;;;;;;;2.30;2.20;;;12.40;99.90;;;;;;4998493;28;88151;-32
2022/08/06 00:28:25;;;;;;;2.50;2.38;;;12.40;99.90;;;;;;4999920;28;90516;-33
2022/08/06 00:30:51;;;;;;;4.80;2.67;;;12.40;99.90;;;;;;4999541;28;89428;-31
2022/08/06 00:33:17;;;;;;;2.65;2.08;;;12.40;99.90;;;;;;4999275;28;89998;-35
2022/08/06 00:35:43;;;;;;;7.30;2.83;;;12.30;99.90;;;;;;5000251;28;88977;-33
2022/08/06 00:38:09;;;;;;;2.72;1.85;;;12.30;99.90;;;;;;4999742;28;91173;-31
2022/08/06 00:40:35;;;;;;;2.38;2.15;;;12.20;99.90;;;;;;4999635;28;89591;-32
2022/08/06 00:43:03;;;;;;;2.83;2.63;;;12.20;99.90;;;;;;4998864;28;89964;-33
2022/08/06 00:45:33;;;;;;;5.82;2.80;;;12.20;99.90;;;;;;4998710;28;90386;-30
2022/08/06 00:48:00;;;;;;;4.97;2.63;;;12.20;99.90;;;;;;4999287;28;90114;-31
2022/08/06 00:50:26;;;;;;;5.05;2.65;;;12.10;99.90;;;;;;4999781;28;87984;-36
2022/08/06 00:52:51;;;;;;;4.05;2.42;;;12.10;99.90;;;;;;4998961;28;89768;-33
2022/08/06 00:55:17;;;;;;;4.18;2.70;;;12.10;99.90;;;;;;4999336;28;88822;-33
2022/08/06 00:57:42;;;;;;;5.35;2.83;;;12.10;99.90;;;;;;4999768;28;89829;-32
2022/08/06 01:00:09;;;;;;;4.55;2.95;;;12.00;99.90;;;;;;4999234;28;89565;-34
2022/08/06 01:02:35;;;;;;;10.10;2.70;;;12.00;99.90;;;;;;4999701;28;89692;-35
2022/08/06 01:05:00;;;;;;;5.53;2.67;;;11.90;99.90;;;;;;4999497;28;89129;-31
2022/08/06 01:07:26;;;;;;;2.95;2.33;;;11.90;99.90;;;;;;4998577;28;90635;-34
2022/08/06 01:09:52;;;;;;;4.45;2.30;;;11.80;99.90;;;;;;4999161;28;91121;-34
2022/08/06 01:12:17;;;;;;;2.63;2.42;;;11.80;99.90;;;;;;4999168;28;90476;-31
2022/08/06 01:14:43;;;;;;;2.35;2.15;;;11.80;99.90;;;;;;4999588;28;88906;-32
2022/08/06 01:17:24;;;;;;;4.30;2.72;;;11.80;99.90;;;;;;4998382;28;91165;-30
2022/08/06 01:20:08;;;;;;;3.70;2.70;;;11.70;99.90;;;;;;4999191;28;90653;-31
2022/08/06 01:23:11;;;;;;;2.50;2.30;;;11.70;99.90;;;;;;4987482;28;89043;-30
2022/08/06 01:25:59;;;;;;;3.80;2.92;;;11.60;99.90;;;;;;5000126;28;89064;-33
2022/08/06 01:28:28;;;;;;;;;;;11.60;99.90;;;;;;4999767;28;89051;-33
2022/08/06 01:31:01;;;;;;;2.95;2.33;;;11.60;99.90;;;;;;5000860;28;90141;-30
2022/08/06 01:33:33;;;;;;;5.00;2.70;;;11.60;99.90;;;;;;4998515;28;89429;-32
2022/08/06 01:36:04;;;;;;;3.97;2.72;;;11.50;99.90;;;;;;4999002;28;90069;-31
2022/08/06 01:38:37;;;;;;;5.15;3.05;;;11.50;99.90;;;;;;4998858;28;91878;-32
2022/08/06 01:41:07;;;;;;;7.70;3.55;;;11.50;99.90;;;;;;5000515;28;89679;-33
2022/08/06 01:43:33;;;;;;;2.97;2.13;;;11.50;99.90;;;;;;5002223;28;89489;-31
2022/08/06 01:46:00;;;;;;;7.90;3.38;;;11.50;99.90;;;;;;5002390;28;88524;-33
2022/08/06 01:48:27;;;;;;;3.97;2.72;;;11.50;99.90;;;;;;5002058;28;89911;-30
2022/08/06 01:50:57;;;;;;;2.92;2.72;;;11.40;99.90;;;;;;5002846;28;89650;-31
2022/08/06 01:53:34;;;;;;;3.92;2.42;;;11.40;99.90;;;;;;5002259;28;89231;-33
2022/08/06 01:56:01;;;;;;;3.83;2.67;;;11.40;99.90;;;;;;5002590;28;89190;-30
2022/08/06 01:58:49;;;;;;;5.63;2.77;;;11.40;99.90;;;;;;5002005;28;90358;-30
2022/08/06 02:01:18;;;;;;;3.40;3.10;;;11.30;99.90;;;;;;5001593;28;90302;-33
2022/08/06 02:03:49;;;;;;;2.88;2.67;;;11.30;99.90;;;;;;5002084;28;90490;-31
2022/08/06 02:06:19;;;;;;;4.90;3.70;;;11.30;99.90;;;;;;5002403;28;89726;-32
2022/08/06 02:08:47;;;;;;;2.95;2.72;;;11.30;99.90;;;;;;5001767;28;89576;-31
2022/08/06 02:11:13;;;;;;;9.43;3.30;;;11.30;99.90;;;;;;5001663;28;90086;-32
2022/08/06 02:13:41;;;;;;;3.35;2.97;;;11.20;99.90;;;;;;5002297;28;89616;-30
2022/08/06 02:16:11;;;;;;;3.88;2.58;;;11.20;99.90;;;;;;5002729;28;89444;-30
2022/08/06 02:18:40;;;;;;;3.30;2.85;;;11.20;99.90;;;;;;5001792;28;90360;-30
2022/08/06 02:21:10;;;;;;;7.88;3.25;;;11.20;99.90;;;;;;5002235;28;89395;-34
2022/08/06 02:23:37;;;;;;;4.07;3.45;;;11.20;99.90;;;;;;5002080;28;89657;-31
2022/08/06 02:26:04;;;;;;;6.88;3.17;;;11.20;99.90;;;;;;5001510;28;90348;-32
2022/08/06 02:28:32;;;;;;;6.45;3.35;;;11.10;99.90;;;;;;4999822;28;90263;-30
2022/08/06 02:30:59;;;;;;;5.22;3.05;;;11.10;99.90;;;;;;5001381;28;90484;-32
2022/08/06 02:33:25;;;;;;;7.93;3.58;;;11.10;99.90;;;;;;5001366;28;89417;-31
2022/08/06 02:35:58;;;;;;;4.18;3.58;;;11.10;99.90;;;;;;5001628;28;89967;-32
2022/08/06 02:38:55;;;;;;;6.03;3.70;;;11.10;99.90;;;;;;5001938;28;90709;-32
2022/08/06 02:41:30;;;;;;;4.35;3.92;;;11.10;99.90;;;;;;5002617;28;89962;-30
2022/08/06 02:44:16;;;;;;;6.20;3.22;;;11.10;99.90;;;;;;5001257;28;89970;-31
2022/08/06 02:46:52;;;;;;;6.95;4.13;;;11.10;99.90;;;;;;5001649;28;89261;-32
2022/08/06 02:49:21;;;;;;;4.85;4.32;;;11.10;99.90;;;;;;4989153;28;90426;-29
2022/08/06 02:52:08;;;;;;;4.47;4.07;;;11.10;99.90;;;;;;5001184;28;90527;-31
2022/08/06 02:55:13;;;;;;;4.50;3.97;;;11.10;99.90;;;;;;4990580;28;90013;-31
2022/08/06 02:58:04;;;;;;;6.60;4.38;;;11.10;99.90;;;;;;4992490;28;90562;-31
2022/08/06 03:00:30;;;;;;;8.45;4.65;;;11.10;99.90;;;;;;4991348;28;90338;-33
2022/08/06 03:03:01;;;;;;;5.32;4.22;;;11.00;99.90;;;;;;5000863;28;89567;-29
2022/08/06 03:05:28;;;;;;;4.55;4.22;;;11.00;99.90;;;;;;5000625;28;90379;-31
2022/08/06 03:07:55;;;;;;;6.95;4.55;;;11.00;99.90;;;;;;4987346;28;89532;-34
2022/08/06 03:10:25;;;;;;;5.03;4.63;;;11.00;99.90;;;;;;5001175;28;90166;-33
2022/08/06 03:12:53;;;;;;;4.47;4.05;;;11.00;99.90;;;;;;5001251;28;90345;-32
2022/08/06 03:15:19;;;;;;;6.07;4.97;;;10.90;99.90;;;;;;5001282;28;89509;-32
2022/08/06 03:17:46;;;;;;;4.88;4.40;;;10.90;99.90;;;;;;5000564;28;89403;-32
2022/08/06 03:20:20;;;;;;;5.10;4.57;;;10.90;99.90;;;;;;5000193;28;90615;-31
2022/08/06 03:22:50;;;;;;;7.53;4.68;;;10.90;99.90;;;;;;5001153;28;89786;-30
2022/08/06 03:25:17;;;;;;;5.82;4.57;;;10.90;99.90;;;;;;5001376;28;90286;-31
2022/08/06 03:27:44;;;;;;;4.18;3.67;;;10.90;99.90;;;;;;5001016;28;90096;-33
2022/08/06 03:30:20;;;;;;;5.72;4.10;;;10.90;99.90;;;;;;5000762;28;90450;-30
2022/08/06 03:32:46;;;;;;;13.02;4.88;;;10.90;99.90;;;;;;5001364;28;89623;-30
2022/08/06 03:35:14;;;;;;;7.22;5.57;;;10.90;99.90;;;;;;5001267;28;89924;-33
2022/08/06 03:37:42;;;;;;;7.13;4.90;;;11.00;99.90;;;;;;5001219;28;89995;-32
2022/08/06 03:40:10;;;;;;;5.63;4.05;;;11.00;99.90;;;;;;5001067;28;90933;-32
2022/08/06 03:42:35;;;;;;;4.63;4.22;;;11.00;99.90;;;;;;5000484;28;91054;-30
2022/08/06 03:45:01;;;;;;;4.72;4.28;;;11.00;99.90;;;;;;5000140;28;90420;-31
2022/08/06 03:47:34;;;;;;;6.10;5.15;;;11.00;99.90;;;;;;5000699;28;88399;-30
2022/08/06 03:50:10;;;;;;;7.32;4.85;;;11.00;99.90;;;;;;4998302;28;90590;-29
2022/08/06 03:52:40;;;;;;;6.00;4.43;;;11.00;99.90;;;;;;5000796;28;89600;-29
2022/08/06 03:55:08;;;;;;;6.30;4.88;;;11.00;99.90;;;;;;5001074;28;90206;-30
2022/08/06 03:57:41;;;;;;;5.80;5.18;;;11.00;99.90;;;;;;5001261;28;89372;-31
2022/08/06 04:00:12;;;;;;;6.95;5.10;;;11.00;99.90;;;;;;5000418;28;90347;-33
2022/08/06 04:02:43;;;;;;;6.18;4.97;;;11.00;99.90;;;;;;5000003;28;89919;-33
2022/08/06 04:05:11;;;;;;;8.32;5.50;;;10.90;99.90;;;;;;4999766;28;89493;-32
2022/08/06 04:07:38;;;;;;;7.38;5.10;;;10.90;99.90;;;;;;5000251;28;90240;-32
2022/08/06 04:10:04;;;;;;;7.50;5.68;;;11.00;99.90;;;;;;5000545;28;90230;-31
2022/08/06 04:12:31;;;;;;;7.82;5.00;;;11.00;99.90;;;;;;5000369;28;89684;-30
2022/08/06 04:14:57;;;;;;;6.55;5.53;;;10.90;99.90;;;;;;4999763;28;89240;-33
2022/08/06 04:17:24;;;;;;;5.40;4.93;;;10.90;99.90;;;;;;5000166;28;89347;-34
2022/08/06 04:19:52;;;;;;;4.97;4.45;;;10.90;99.90;;;;;;5000273;28;90541;-30
2022/08/06 04:22:17;;;;;;;4.93;4.47;;;11.00;99.90;;;;;;4999623;28;91738;-31
2022/08/06 04:24:43;;;;;;;5.90;5.30;;;11.00;99.90;;;;;;5000418;28;91039;-32
2022/08/06 04:27:10;;;;;;;6.22;4.40;;;11.00;99.90;;;;;;5000214;28;88566;-34
2022/08/06 04:29:38;;;;;;;6.13;5.03;;;11.00;99.90;;;;;;4999729;28;90247;-31
2022/08/06 04:32:05;;;;;;;5.07;4.57;;;11.00;99.90;;;;;;4999539;28;90639;-29
2022/08/06 04:34:33;;;;;;;4.00;3.47;;;11.00;99.90;;;;;;4999658;28;90772;-30
2022/08/06 04:37:00;;;;;;;4.78;4.30;;;11.10;99.90;;;;;;5000587;28;89250;-30
2022/08/06 04:39:27;;;;;;;5.63;4.63;;;11.10;99.90;;;;;;4999309;28;91059;-30
2022/08/06 04:41:53;;;;;;;6.38;4.63;;;11.10;99.90;;;;;;5000125;28;90043;-33
2022/08/06 04:44:19;;;;;;;5.40;4.80;;;11.20;99.90;;;;;;4999469;28;89467;-33
2022/08/06 04:46:49;;;;;;;7.53;3.88;;;11.40;99.90;;;;;;4999884;28;89324;-32
2022/08/06 04:49:16;;;;;;;4.10;3.72;;;11.60;99.90;;;;;;4998618;28;90268;-34
2022/08/06 04:51:46;;;;;;;3.50;2.97;;;11.80;99.90;;;;;;4999449;28;89994;-34
2022/08/06 04:54:12;;;;;;;4.32;3.60;;;12.10;99.90;;;;;;4999457;28;90024;-32
2022/08/06 04:56:38;;;;;;;3.83;3.53;;;12.40;99.90;;;;;;4999672;28;90450;-31
2022/08/06 04:59:05;;;;;;;4.93;3.45;;;12.60;99.90;;;;;;4998714;28;90951;-34
2022/08/06 05:01:30;;;;;;;4.45;3.92;;;12.90;99.90;;;;;;4999115;28;89111;-35
2022/08/06 05:03:56;;;;;;;4.68;4.28;;;13.00;99.90;;;;;;5000144;28;88892;-31
2022/08/06 05:06:43;;;;;;;3.53;3.22;;;13.10;99.90;;;;;;4999579;28;89885;-30
2022/08/06 05:09:14;;;;;;;5.90;4.30;;;13.20;99.90;;;;;;4999036;28;90230;-33
2022/08/06 05:11:47;;;;;;;6.28;4.28;;;13.10;99.90;;;;;;4998621;28;89736;-33
2022/08/06 05:14:28;;;;;;;4.20;3.90;;;13.10;99.90;;;;;;4998802;28;91848;-30
2022/08/06 05:16:55;;;;;;;4.32;3.92;;;13.10;99.90;;;;;;4998948;28;89223;-30
2022/08/06 05:19:32;;;;;;;4.20;3.80;;;13.10;99.90;;;;;;4998944;28;90191;-30
2022/08/06 05:21:59;;;;;;;4.00;3.70;;;13.10;99.90;;;;;;4998739;28;90930;-30
2022/08/06 05:24:27;;;;;;;4.32;3.92;;;13.10;99.90;;;;;;4998193;28;90377;-34
2022/08/06 05:26:53;;;;;;;6.10;4.40;;;13.20;99.90;;;;;;4999637;28;89940;-31
2022/08/06 05:29:20;;;;;;;4.00;3.45;;;13.20;99.90;;;;;;4998785;28;90381;-30
2022/08/06 05:31:46;;;;;;;2.88;2.67;;;13.30;99.90;;;;;;4999241;28;89915;-30
2022/08/06 05:34:12;;;;;;;3.95;3.65;;;13.40;99.90;;;;;;4998459;28;89795;-30
2022/08/06 05:36:38;;;;;;;3.42;2.88;;;13.50;99.90;;;;;;4999346;28;88160;-30
2022/08/06 05:39:05;;;;;;;3.58;3.25;;;13.60;99.90;;;;;;4998126;28;90418;-33
2022/08/06 05:41:30;;;;;;;2.80;2.55;;;13.70;99.90;;;;;;4999171;28;88982;-30
2022/08/06 05:43:58;;;;;;;3.28;3.08;;;13.80;99.90;;;;;;4999069;28;89198;-31
2022/08/06 05:46:26;;;;;;;3.65;3.35;;;13.90;99.90;;;;;;4998251;28;89200;-30
2022/08/06 05:49:06;;;;;;;2.80;2.50;;;14.00;99.90;;;;;;4998430;28;90247;-32
2022/08/06 05:51:38;;;;;;;6.55;2.70;;;14.20;99.90;;;;;;4998672;28;90506;-31
2022/08/06 05:54:23;;;;;;;3.10;2.80;;;14.30;99.90;;;;;;4998570;28;90194;-32
2022/08/06 05:56:52;;;;;;;4.25;3.85;;;14.50;99.90;;;;;;4992190;28;89524;-34
2022/08/06 05:59:27;;;;;;;2.15;1.85;;;14.60;99.90;;;;;;4992379;28;90286;-35
2022/08/06 06:01:54;;;;;;;3.08;2.65;;;14.80;99.90;;;;;;4986077;28;89707;-32
2022/08/06 06:04:23;;;;;;;3.47;2.65;;;14.80;99.90;;;;;;4998086;28;89879;-32
2022/08/06 06:06:49;;;;;;;;;;;15.00;99.90;;;;;;4999242;28;88740;-34
2022/08/06 06:09:15;;;;;;;2.13;1.90;;;15.00;99.90;;;;;;5000645;28;90212;-33
2022/08/06 06:11:41;;;;;;;3.17;2.03;;;15.10;99.90;;;;;;4998113;28;90672;-32
2022/08/06 06:14:26;;;;;;;2.25;1.70;;;15.20;99.90;;;;;;4998210;28;90467;-33
2022/08/06 06:17:25;;;;;;;1.85;1.70;;;15.40;99.90;;;;;;4998980;28;87560;-31
2022/08/06 06:20:09;;;;;;;4.78;1.88;;;15.50;99.90;;;;;;4997976;28;89187;-34
2022/08/06 06:23:19;;;;;;;1.42;1.30;;;15.60;99.90;;;;;;4998771;28;89961;-32
2022/08/06 06:26:09;;;;;;;1.40;1.30;;;15.80;99.90;;;;;;4994755;28;89326;-31
2022/08/06 06:28:49;;;;;;;1.58;1.48;;;16.00;99.90;;;;;;5001638;28;87915;-33
2022/08/06 06:31:27;;;;;;;1.38;1.27;;;16.10;99.90;;;;;;5001912;28;90443;-31
2022/08/06 06:33:52;;;;;;;;;;;16.20;99.90;;;;;;5002808;28;89862;-34
2022/08/06 06:36:46;;;;;;;1.52;1.42;;;16.30;99.90;;;;;;5002612;28;89680;-33
2022/08/06 06:39:25;;;;;;;2.25;1.40;;;16.40;99.90;;;;;;4987655;28;90486;-35
2022/08/06 06:41:57;;;;;;;1.92;1.83;;;16.50;99.90;;;;;;5001574;28;90701;-32
2022/08/06 06:44:34;;;;;;;1.30;1.23;;;16.70;99.90;;;;;;5000890;28;89839;-31
2022/08/06 06:47:04;;;;;;;2.05;1.83;;;16.90;99.90;;;;;;5001694;28;89372;-35
2022/08/06 06:49:42;;;;;;;2.45;1.20;;;17.10;99.90;;;;;;5001323;28;89424;-34
2022/08/06 06:52:29;;;;;;;2.72;1.08;;;17.40;99.90;;;;;;5001110;28;89999;-32
2022/08/06 06:55:04;;;;;;;1.13;1.03;;;17.70;99.90;;;;;;5001692;28;89837;-31
2022/08/06 06:57:34;;;;;;;3.10;1.50;;;18.00;99.90;;;;;;5001845;28;89417;-31
2022/08/06 07:00:04;;;;;;;1.10;1.00;;;18.30;99.90;;;;;;5000981;28;89419;-35
2022/08/06 07:02:35;;;;;;;1.77;1.20;;;18.60;99.90;;;;;;5000861;28;91770;-32
2022/08/06 07:05:04;;;;;;;1.27;1.17;;;18.80;99.90;;;;;;5000919;28;91509;-32
2022/08/06 07:07:37;;;;;;;1.67;0.90;;;18.90;99.90;;;;;;5000875;28;89191;-32
2022/08/06 07:10:05;;;;;;;1.20;1.08;;;19.10;99.90;;;;;;5002040;28;89963;-31
2022/08/06 07:12:32;;;;;;;2.78;1.27;;;19.30;99.90;;;;;;4999532;28;90362;-31
2022/08/06 07:15:00;;;;;;;2.60;1.10;;;19.50;99.90;;;;;;4998236;28;91761;-32
2022/08/06 07:17:27;;;;;;;4.13;1.63;;;19.70;99.90;;;;;;4998301;28;90184;-33
2022/08/06 07:19:56;;;;;;;2.00;0.90;;;19.90;99.90;;;;;;4998743;28;88987;-33
2022/08/06 07:22:23;;;;;;;1.67;0.82;;;20.00;99.90;;;;;;4999050;28;90298;-32
2022/08/06 07:24:52;;;;;;;3.00;0.83;;;20.20;99.90;;;;;;4986231;28;89528;-31
2022/08/06 07:27:19;;;;;;;0.88;0.88;;;20.40;99.90;;;;;;5000510;28;89700;-32
2022/08/06 07:29:45;;;;;;;1.83;0.80;;;20.60;99.90;;;;;;5000001;28;89944;-33
2022/08/06 07:32:12;;;;;;;1.85;1.40;;;20.70;99.90;;;;;;5001843;28;90163;-36
2022/08/06 07:34:39;;;;;;;2.05;1.20;;;20.90;99.90;;;;;;5002520;28;90427;-33
2022/08/06 07:37:06;;;;;;;1.03;0.83;;;21.00;99.90;;;;;;4998987;28;89361;-32
2022/08/06 07:39:37;;;;;;;1.77;1.30;;;21.00;99.90;;;;;;4998936;28;90017;-35
2022/08/06 07:42:08;;;;;;;1.95;1.25;;;20.90;99.90;;;;;;4996730;28;90185;-33
2022/08/06 07:44:41;;;;;;;1.67;1.00;;;21.00;99.90;;;;;;4999442;28;91467;-33
2022/08/06 07:47:08;;;;;;;2.47;1.48;;;21.10;99.90;;;;;;5001851;28;89447;-32
2022/08/06 07:49:41;;;;;;;1.95;0.90;;;21.20;99.90;;;;;;5003055;28;89739;-30
2022/08/06 07:52:08;;;;;;;3.03;1.10;;;21.30;99.90;;;;;;5004594;28;91283;-34
2022/08/06 07:54:35;;;;;;;2.38;1.27;;;21.50;99.90;;;;;;5003873;28;90628;-34
2022/08/06 07:57:01;;;;;;;3.35;0.95;;;21.60;99.90;;;;;;5002986;28;90531;-31
2022/08/06 07:59:27;;;;;;;5.72;1.20;;;21.80;99.90;;;;;;5001701;28;88346;-34
2022/08/06 08:01:52;;;;;;;1.30;0.70;;;21.90;99.90;;;;;;4999999;28;90425;-33
2022/08/06 08:07:05;;;;;;;1.65;0.88;;;22.20;99.90;;;;;;4998477;28;89815;-32
2022/08/06 08:09:31;;;;;;;0.85;0.70;;;22.10;99.90;;;;;;4998403;28;88875;-31
2022/08/06 08:11:57;;;;;;;1.45;1.00;;;22.00;99.90;;;;;;4998184;28;90117;-34
2022/08/06 08:14:24;;;;;;;5.38;1.13;;;21.70;99.90;;;;;;4997782;28;89666;-33
2022/08/06 08:16:50;;;;;;;2.17;0.82;;;21.70;99.90;;;;;;5003739;28;89643;-32
2022/08/06 08:19:34;;;;;;;3.20;0.90;;;21.90;99.90;;;;;;5005825;28;89515;-32
2022/08/06 08:22:08;;;;;;;2.60;0.85;;;22.00;99.90;;;;;;5000032;28;90555;-33
2022/08/06 08:24:35;;;;;;;1.65;0.70;;;22.10;99.90;;;;;;5000890;28;89684;-32
2022/08/06 08:27:03;;;;;;;2.10;1.27;;;22.10;99.90;;;;;;5002014;28;89361;-30
2022/08/06 08:29:29;;;;;;;2.92;1.10;;;22.10;99.90;;;;;;5000248;28;88240;-32
2022/08/06 08:31:56;;;;;;;1.88;0.95;;;22.20;99.90;;;;;;4999541;28;90324;-30
2022/08/06 08:34:22;;;;;;;2.05;0.77;;;22.20;99.90;;;;;;4998942;28;90420;-32
2022/08/06 08:36:48;;;;;;;5.97;0.75;;;22.20;99.90;;;;;;5000161;28;89880;-34
2022/08/06 08:39:15;;;;;;;0.70;0.70;;;22.40;99.90;;;;;;4999072;28;88469;-32
2022/08/06 08:41:45;;;;;;;1.70;1.03;;;22.60;99.90;;;;;;4999628;28;90309;-35
2022/08/06 08:44:11;;;;;;;2.75;0.63;;;22.80;99.90;;;;;;4998738;28;90674;-35
2022/08/06 08:46:43;;;;;;;0.70;0.70;;;22.50;99.90;;;;;;4999861;28;90534;-32
2022/08/06 08:49:20;;;;;;;1.33;0.80;;;22.10;99.90;;;;;;5000653;28;89395;-34
2022/08/06 08:51:48;;;;;;;1.00;0.90;;;21.70;99.90;;;;;;4999312;28;90392;-31
2022/08/06 08:54:17;;;;;;;0.82;0.50;;;21.90;99.90;;;;;;4999109;28;91034;-34
2022/08/06 08:56:44;;;;;;;1.67;0.60;;;22.20;99.90;;;;;;4998960;28;90339;-31
2022/08/06 08:59:10;;;;;;;0.90;0.68;;;22.20;99.90;;;;;;4999459;28;89766;-35
2022/08/06 09:01:36;;;;;;;1.08;0.80;;;21.90;99.90;;;;;;5000016;28;90672;-32
2022/08/06 09:04:04;;;;;;;1.70;1.60;;;21.70;99.90;;;;;;4998422;28;90174;-32
2022/08/06 09:06:32;;;;;;;0.73;0.70;;;21.50;99.90;;;;;;4998387;28;90328;-33
2022/08/06 09:09:03;;;;;;;1.38;1.17;;;21.30;99.90;;;;;;4999105;28;90364;-35
2022/08/06 09:11:30;;;;;;;1.83;0.70;;;21.20;99.90;;;;;;4999483;28;89522;-35
2022/08/06 09:13:56;;;;;;;1.17;1.00;;;21.00;99.90;;;;;;4999650;28;89393;-32
2022/08/06 09:16:21;;;;;;;1.20;1.00;;;20.90;99.90;;;;;;4998193;28;89665;-34
2022/08/06 09:18:47;;;;;;;1.67;0.63;;;21.10;99.90;;;;;;4998639;28;88652;-34
2022/08/06 09:21:13;;;;;;;1.30;0.90;;;21.30;99.90;;;;;;4999288;28;89532;-31
2022/08/06 09:23:39;;;;;;;0.80;0.80;;;21.60;99.90;;;;;;4998748;28;89483;-31
2022/08/06 09:26:05;;;;;;;0.95;0.90;;;21.90;97.20;;;;;;4998133;28;89597;-34
2022/08/06 09:28:35;;;;;;;2.85;1.00;;;22.10;96.90;;;;;;4998838;28;88319;-34
2022/08/06 09:31:10;;;;;;;1.20;1.10;;;22.40;95.00;;;;;;4999246;28;90314;-33
2022/08/06 09:33:42;;;;;;;5.30;1.20;;;22.80;89.30;;;;;;4998447;28;90778;-31
2022/08/06 09:36:12;;;;;;;4.03;1.30;;;22.70;82.40;;;;;;4998632;28;90413;-34
2022/08/06 09:38:56;;;;;;;0.80;0.70;;;22.50;83.00;;;;;;4998725;28;88370;-33
2022/08/06 09:41:24;;;;;;;5.72;1.10;;;22.40;90.10;;;;;;4999092;28;89152;-31
2022/08/06 09:43:52;;;;;;;1.40;0.80;;;22.00;94.80;;;;;;4998680;28;89655;-31
2022/08/06 09:46:38;;;;;;;0.95;0.85;;;21.70;96.80;;;;;;4998987;28;90375;-32
2022/08/06 09:49:04;;;;;;;3.17;1.73;;;21.30;99.90;;;;;;4998704;28;89866;-33
2022/08/06 09:51:34;;;;;;;1.25;1.08;;;21.00;99.90;;;;;;4999234;28;88989;-33
2022/08/06 09:54:01;;;;;;;3.92;1.10;;;20.80;99.90;;;;;;4999156;28;89609;-33
2022/08/06 09:56:27;;;;;;;0.98;0.88;;;20.60;99.90;;;;;;4998671;28;89493;-32
2022/08/06 09:59:05;;;;;;;1.67;1.42;;;20.50;99.90;;;;;;4998815;28;89009;-34
2022/08/06 10:01:39;;;;;;;2.75;0.80;;;20.50;99.90;;;;;;4999293;28;90108;-31
2022/08/06 10:04:05;;;;;;;7.00;1.75;;;20.40;99.90;;;;;;5002445;28;89727;-32
2022/08/06 10:06:31;;;;;;;1.20;0.65;;;20.40;99.90;;;;;;5001714;28;89955;-31
2022/08/06 10:09:09;;;;;;;1.33;1.23;;;20.40;99.90;;;;;;5002246;28;89392;-33
2022/08/06 10:11:41;;;;;;;3.70;0.88;;;20.60;99.90;;;;;;5002179;28;89210;-33
2022/08/06 10:14:29;;;;;;;1.58;1.23;;;20.90;92.80;;;;;;5002038;28;90414;-32
2022/08/06 10:17:17;;;;;;;1.38;1.25;;;21.10;93.20;;;;;;5002042;28;90061;-32
2022/08/06 10:19:46;;;;;;;1.33;1.13;;;21.20;94.90;;;;;;5002207;28;89316;-34
2022/08/06 10:22:16;;;;;;;2.88;1.40;;;21.30;94.40;;;;;;5002032;28;89569;-34
2022/08/06 10:24:44;;;;;;;3.40;1.75;;;21.30;95.10;;;;;;5001666;28;91195;-33
2022/08/06 10:27:15;;;;;;;5.13;1.27;;;21.30;95.20;;;;;;5001335;28;90584;-34
2022/08/06 10:29:52;;;;;;;2.05;1.38;;;21.10;98.20;;;;;;5002176;28;89345;-35
2022/08/06 10:32:48;;;;;;;2.50;1.97;;;21.00;99.90;;;;;;5001403;28;90049;-32
2022/08/06 10:35:17;;;;;;;1.48;1.38;;;20.90;99.90;;;;;;5001904;28;90691;-33
2022/08/06 10:37:45;;;;;;;3.33;2.00;;;20.90;99.90;;;;;;5001691;28;90887;-32
2022/08/06 10:40:12;;;;;;;;;;;21.00;99.90;;;;;;5002010;28;88882;-33
2022/08/06 10:42:38;;;;;;;2.95;2.63;;;21.00;99.90;;;;;;5002906;28;90605;-31
2022/08/06 10:45:05;;;;;;;4.78;1.95;;;21.10;99.90;;;;;;5001532;28;89668;-34
2022/08/06 10:47:33;;;;;;;5.43;2.00;;;21.50;98.40;;;;;;5001021;28;90113;-32
2022/08/06 10:50:00;;;;;;;2.70;1.42;;;21.60;95.40;;;;;;5001224;28;88911;-32
2022/08/06 10:52:26;;;;;;;3.00;1.50;;;21.60;98.10;;;;;;5001892;28;90761;-32
2022/08/06 10:54:53;;;;;;;2.70;1.35;;;21.60;99.90;;;;;;5001249;28;89593;-34
2022/08/06 10:57:18;;;;;;;9.10;2.00;;;21.50;99.90;;;;;;5000811;28;88491;-31
2022/08/06 10:59:46;;;;;;;2.72;1.40;;;21.30;99.90;;;;;;5001467;28;89864;-33
2022/08/06 11:02:29;;;;;;;2.30;1.80;;;21.10;99.90;;;;;;5001078;28;92092;-33
2022/08/06 11:05:10;;;;;;;2.08;1.63;;;20.90;99.90;;;;;;5000964;28;89822;-33
2022/08/06 11:07:42;;;;;;;1.88;1.77;;;20.80;99.90;;;;;;5000768;28;88858;-32
2022/08/06 11:10:47;;;;;;;2.00;1.80;;;20.70;99.90;;;;;;5000806;28;90095;-33
2022/08/06 11:13:18;;;;;;;1.88;1.52;;;20.40;99.90;;;;;;4998815;28;90570;-33
2022/08/06 11:15:44;;;;;;;1.98;1.48;;;20.20;99.90;;;;;;4999926;28;89835;-33
2022/08/06 11:18:11;;;;;;;3.53;2.00;;;20.10;99.90;;;;;;5000686;28;90303;-32
2022/08/06 11:20:42;;;;;;;1.83;1.63;;;20.10;99.90;;;;;;5001223;28;88177;-33
2022/08/06 11:23:11;;;;;;;1.63;1.52;;;20.00;99.90;;;;;;5001100;28;90779;-32
2022/08/06 11:25:47;;;;;;;1.58;1.48;;;19.90;99.90;;;;;;4987695;28;89707;-32
2022/08/06 11:28:16;;;;;;;1.92;1.50;;;20.00;99.90;;;;;;5001043;28;89599;-33
2022/08/06 11:30:41;;;;;;;;;;;20.30;99.90;;;;;;5000039;28;88256;-30
2022/08/06 11:33:08;;;;;;;4.32;2.00;;;20.50;99.90;;;;;;5002305;28;90269;-35
2022/08/06 11:35:33;;;;;;;5.10;1.60;;;20.60;99.90;;;;;;5000760;28;89792;-31
2022/08/06 11:38:13;;;;;;;1.75;1.65;;;20.70;99.80;;;;;;5000558;28;88067;-32
2022/08/06 11:41:00;;;;;;;2.17;2.08;;;20.70;99.90;;;;;;5000673;28;90253;-32
2022/08/06 11:43:48;;;;;;;1.87;1.43;;;20.70;96.40;;;;;;5000153;28;90853;-32
2022/08/06 11:46:34;;;;;;;2.83;2.45;;;20.70;96.70;;;;;;4988219;28;88961;-36
2022/08/06 11:49:02;;;;;;;2.97;1.90;;;20.70;95.40;;;;;;5000697;28;89457;-31
2022/08/06 11:51:48;;;;;;;2.38;1.88;;;20.70;97.30;;;;;;5000995;28;87708;-34
2022/08/06 11:54:29;;;;;;;2.95;1.95;;;20.70;98.40;;;;;;5000435;28;90465;-32
2022/08/06 11:57:06;;;;;;;4.85;2.28;;;20.70;99.90;;;;;;5000949;28;89954;-32
2022/08/06 11:59:43;;;;;;;2.47;1.63;;;20.70;98.60;;;;;;5000110;28;90751;-35
2022/08/06 12:02:15;;;;;;;2.83;1.73;;;20.70;99.90;;;;;;5000293;28;88631;-34
2022/08/06 12:04:42;;;;;;;2.15;1.92;;;20.70;99.90;;;;;;5000661;28;90295;-31
2022/08/06 12:07:22;;;;;;;2.17;2.05;;;20.70;99.90;;;;;;4999807;28;90417;-33
2022/08/06 12:10:11;;;;;;;1.67;1.50;;;20.70;99.90;;;;;;4999549;28;90893;-32
2022/08/06 12:12:39;;;;;;;1.75;1.65;;;20.80;99.90;;;;;;5000713;28;88278;-32
2022/08/06 12:15:16;;;;;;;3.60;2.00;;;20.70;94.70;;;;;;5000115;28;90709;-32
2022/08/06 12:17:59;;;;;;;1.88;1.77;;;20.80;90.30;;;;;;5000581;28;89824;-32
2022/08/06 12:20:35;;;;;;;1.88;1.77;;;21.00;90.20;;;;;;5038722;22;88590;-32
2022/08/06 12:23:09;;;;;;;3.10;2.25;;;21.40;77.80;;;;;;5000214;28;88725;-34
2022/08/06 12:25:46;;;;;;;4.07;2.05;;;21.80;74.10;;;;;;4999562;28;90282;-32
2022/08/06 12:28:14;;;;;;;3.80;2.08;;;22.10;69.50;;;;;;4999506;28;90103;-33
2022/08/06 12:30:41;;;;;;;;;;;22.40;67.20;;;;;;4986443;28;89493;-32
2022/08/06 12:33:08;;;;;;;2.07;1.90;;;22.40;64.20;;;;;;5001580;28;89419;-32
2022/08/06 12:35:34;;;;;;;2.58;2.30;;;22.30;59.60;;;;;;4999903;28;90800;-32
2022/08/06 12:38:00;;;;;;;2.30;1.73;;;22.20;63.00;;;;;;4999691;28;90331;-35
2022/08/06 12:40:28;;;;;;;1.67;1.58;;;22.00;65.10;;;;;;4999986;28;89402;-32
2022/08/06 12:42:55;;;;;;;2.85;1.42;;;21.90;64.50;;;;;;5000911;28;88891;-33
2022/08/06 12:45:25;;;;;;;2.13;1.92;;;22.00;60.50;;;;;;4999213;28;91508;-33
2022/08/06 12:48:01;;;;;;;4.07;2.30;;;21.90;59.80;;;;;;4999559;28;89181;-33
2022/08/06 12:50:29;;;;;;;2.55;1.63;;;21.80;62.50;;;;;;4999265;28;88534;-32
2022/08/06 12:53:03;;;;;;;3.23;1.97;;;21.90;64.50;;;;;;5000147;28;88867;-35
2022/08/06 12:55:30;;;;;;;3.00;2.20;;;22.10;64.60;;;;;;4999036;28;90228;-31
2022/08/06 12:57:59;;;;;;;2.43;2.07;;;22.00;64.20;;;;;;4998345;28;90956;-33
2022/08/06 13:00:26;;;;;;;1.67;1.50;;;21.80;65.80;;;;;;4998677;28;90520;-33
2022/08/06 13:02:53;;;;;;;;;;;21.60;66.90;;;;;;5001551;28;88315;-32
2022/08/06 13:05:20;;;;;;;2.22;2.03;;;21.50;68.70;;;;;;5001057;28;89924;-33
2022/08/06 13:07:47;;;;;;;5.57;1.80;;;21.50;73.40;;;;;;4999361;28;89636;-32
2022/08/06 13:10:13;;;;;;;1.85;1.60;;;21.60;70.70;;;;;;4998904;28;89151;-32